Time;durP1;ratioP1;P1;durP2;ratioP2;P2;SDS_P1;SDS_P2;PMS_P1;PMS_P2;Temp;Humidity;BMP_temperature;BMP_pressure;BME280_temperature;BME280_humidity;BME280_pressure;Samples;Min_cycle;Max_cycle;Signal;HPM_P1;HPM_P2
2022/08/10 00:02:28;;;;;;;2.80;2.00;;;;;;;18.19;66.03;101468.41;5059191;28;20503;-83
2022/08/10 00:04:55;;;;;;;2.80;2.30;;;;;;;18.16;65.90;101473.31;5048637;28;20484;-83
2022/08/10 00:07:21;;;;;;;6.50;2.57;;;;;;;18.09;66.33;101474.94;5045048;28;20528;-83
2022/08/10 00:09:48;;;;;;;2.33;2.13;;;;;;;18.05;66.69;101467.16;5062203;28;20441;-81
2022/08/10 00:12:15;;;;;;;5.03;2.70;;;;;;;18.02;66.93;101466.63;5063787;28;20481;-82
2022/08/10 00:14:41;;;;;;;5.03;2.63;;;;;;;17.99;67.11;101477.75;5064085;28;20441;-83
2022/08/10 00:17:08;;;;;;;2.97;2.60;;;;;;;17.93;67.36;101475.69;5060058;28;20473;-82
2022/08/10 00:19:36;;;;;;;3.27;2.20;;;;;;;17.91;67.40;101489.34;5052529;28;20477;-82
2022/08/10 00:22:03;;;;;;;4.63;2.53;;;;;;;17.91;67.55;101469.59;5051110;28;20477;-83
2022/08/10 00:24:30;;;;;;;2.80;2.53;;;;;;;17.86;67.68;101479.03;5063589;28;20446;-82
2022/08/10 00:26:56;;;;;;;2.43;2.23;;;;;;;17.82;67.93;101474.91;5044720;28;20518;-81
2022/08/10 00:29:23;;;;;;;2.50;2.27;;;;;;;17.78;67.90;101473.53;5044057;28;20536;-81
2022/08/10 00:31:50;;;;;;;5.40;2.90;;;;;;;17.76;68.29;101471.97;5062637;28;20572;-81
2022/08/10 00:34:16;;;;;;;4.07;2.30;;;;;;;17.70;68.66;101471.59;5062481;28;20452;-82
2022/08/10 00:36:44;;;;;;;4.67;2.67;;;;;;;17.69;68.26;101469.06;5061245;28;20476;-82
2022/08/10 00:39:11;;;;;;;3.60;2.30;;;;;;;17.62;68.82;101474.25;5062286;28;20499;-83
2022/08/10 00:41:38;;;;;;;3.27;2.37;;;;;;;17.57;69.19;101471.16;5062974;28;20476;-82
2022/08/10 00:44:04;;;;;;;3.53;2.00;;;;;;;17.48;69.33;101464.84;5056252;28;20446;-83
2022/08/10 00:46:31;;;;;;;3.53;2.67;;;;;;;17.43;69.73;101461.75;5042506;28;20551;-82
2022/08/10 00:48:58;;;;;;;4.20;2.20;;;;;;;17.36;69.76;101465.22;5046721;28;20503;-82
2022/08/10 00:51:24;;;;;;;2.77;2.50;;;;;;;17.25;70.40;101461.75;5062781;28;20484;-83
2022/08/10 00:53:52;;;;;;;4.27;2.60;;;;;;;17.16;71.22;101457.28;5058659;28;20453;-83
2022/08/10 00:56:19;;;;;;;5.50;3.03;;;;;;;17.06;71.47;101451.94;5043758;28;20497;-82
2022/08/10 00:58:47;;;;;;;3.23;2.57;;;;;;;17.01;72.13;101456.97;5048752;28;20442;-82
2022/08/10 01:01:13;;;;;;;2.80;2.60;;;;;;;16.99;71.89;101450.03;5059153;28;20469;-82
2022/08/10 01:03:40;;;;;;;2.60;2.33;;;;;;;16.94;72.34;101454.03;5063177;28;20488;-81
2022/08/10 01:06:12;;;;;;;4.13;2.80;;;;;;;16.86;72.71;101453.94;5061844;28;20476;-81
2022/08/10 01:08:46;;;;;;;3.50;2.83;;;;;;;16.68;73.69;101453.91;5056493;28;20992;-80
2022/08/10 01:11:18;;;;;;;3.60;2.93;;;;;;;16.70;74.03;101457.28;5044128;28;20502;-80
2022/08/10 01:13:49;;;;;;;5.30;3.20;;;;;;;16.67;73.99;101454.88;5057560;28;20441;-81
2022/08/10 01:16:21;;;;;;;4.73;3.37;;;;;;;16.66;74.29;101449.63;5058540;28;21008;-82
2022/08/10 01:18:53;;;;;;;7.33;3.67;;;;;;;16.66;74.43;101449.63;5045414;28;20520;-80
2022/08/10 01:21:46;;;;;;;5.87;3.10;;;;;;;16.64;74.69;101454.34;5041986;28;20511;-83
2022/08/10 01:24:45;;;;;;;3.70;3.10;;;;;;;16.63;74.53;101442.69;5049488;28;20437;-83
2022/08/10 01:27:28;;;;;;;3.53;3.23;;;;;;;16.54;74.94;101441.75;5053474;28;21006;-83
2022/08/10 01:30:00;;;;;;;3.80;3.10;;;;;;;16.40;75.83;101439.53;5058896;28;20892;-82
2022/08/10 01:32:32;;;;;;;5.03;2.90;;;;;;;16.34;76.19;101434.75;5062064;28;21009;-83
2022/08/10 01:35:05;;;;;;;5.10;3.60;;;;;;;16.27;76.68;101425.53;5046247;28;20500;-81
2022/08/10 01:37:34;;;;;;;3.93;3.47;;;;;;;16.24;77.15;101440.16;5042657;28;20503;-83
2022/08/10 01:40:02;;;;;;;3.10;2.80;;;;;;;16.23;76.94;101435.78;5055860;28;20449;-83
2022/08/10 01:42:31;;;;;;;4.10;3.03;;;;;;;16.24;77.35;101431.25;5060994;28;20481;-81
2022/08/10 01:45:02;;;;;;;3.60;3.30;;;;;;;16.26;76.90;101435.47;5046955;28;20503;-81
2022/08/10 01:50:21;;;;;;;5.93;3.70;;;;;;;16.26;76.89;101431.94;5049206;28;20494;-82
2022/08/10 01:52:50;;;;;;;5.37;3.70;;;;;;;16.23;76.99;101433.09;5061514;28;20471;-82
2022/08/10 01:55:17;;;;;;;4.50;3.17;;;;;;;16.21;76.89;101440.47;5060395;28;20448;-82
2022/08/10 01:57:46;;;;;;;4.13;3.20;;;;;;;16.14;77.35;101432.13;5055101;28;20513;-81
2022/08/10 02:00:14;;;;;;;4.63;3.70;;;;;;;16.10;78.14;101441.50;5048614;28;20441;-84
2022/08/10 02:02:42;;;;;;;4.43;4.00;;;;;;;16.09;78.11;101428.16;5060604;28;20497;-83
2022/08/10 02:05:10;;;;;;;3.50;3.20;;;;;;;16.05;77.57;101424.91;5046492;28;20446;-83
2022/08/10 02:07:38;;;;;;;4.70;3.07;;;;;;;16.03;77.94;101426.06;5045872;28;20519;-83
2022/08/10 02:10:09;;;;;;;3.70;3.03;;;;;;;15.98;78.21;101429.19;5048454;28;20450;-82
2022/08/10 02:12:37;;;;;;;4.20;3.17;;;;;;;15.98;77.99;101427.34;5052579;28;20470;-82
2022/08/10 02:15:07;;;;;;;4.10;3.70;;;;;;;15.97;77.90;101436.44;5046666;28;20465;-82
2022/08/10 02:17:38;;;;;;;3.67;3.37;;;;;;;15.87;78.55;101432.94;5052086;28;20493;-82
2022/08/10 02:20:08;;;;;;;4.00;3.50;;;;;;;15.78;79.09;101434.66;5054715;28;20463;-82
2022/08/10 02:22:36;;;;;;;4.17;3.77;;;;;;;15.78;79.15;101440.03;5064946;28;20445;-83
2022/08/10 02:25:03;;;;;;;4.50;3.77;;;;;;;15.79;79.14;101441.72;5064709;28;20480;-82
2022/08/10 02:27:33;;;;;;;7.40;4.00;;;;;;;15.71;79.05;101436.19;5064543;28;20472;-82
2022/08/10 02:30:00;;;;;;;4.23;3.70;;;;;;;15.65;79.04;101439.47;5062265;28;20491;-82
2022/08/10 02:32:28;;;;;;;4.60;3.83;;;;;;;15.66;79.20;101432.22;5058177;28;20482;-82
2022/08/10 02:34:57;;;;;;;5.30;3.80;;;;;;;15.63;79.17;101436.91;5052591;28;20514;-82
2022/08/10 02:37:25;;;;;;;7.77;3.37;;;;;;;15.61;79.72;101441.59;5063128;28;20496;-82
2022/08/10 02:39:52;;;;;;;4.33;3.93;;;;;;;15.59;79.27;101437.38;5053543;28;20446;-82
2022/08/10 02:42:23;;;;;;;4.30;3.87;;;;;;;15.59;79.72;101430.13;5065022;28;20543;-82
2022/08/10 02:44:55;;;;;;;4.90;4.40;;;;;;;15.58;79.41;101438.34;5051073;28;20472;-82
2022/08/10 02:47:26;;;;;;;4.73;3.80;;;;;;;15.58;79.43;101438.34;5045002;28;20505;-81
2022/08/10 02:49:59;;;;;;;6.20;4.27;;;;;;;15.55;79.58;101435.94;5062139;28;20489;-82
2022/08/10 02:52:30;;;;;;;4.93;4.13;;;;;;;15.55;79.64;101434.06;5049910;28;20487;-82
2022/08/10 02:55:01;;;;;;;6.80;4.93;;;;;;;15.54;79.65;101443.19;5064230;28;20440;-82
2022/08/10 02:57:29;;;;;;;6.43;4.73;;;;;;;15.50;80.03;101436.38;5062234;28;20504;-82
2022/08/10 02:59:57;;;;;;;6.20;4.50;;;;;;;15.51;80.06;101443.47;5049971;28;20538;-81
2022/08/10 03:02:28;;;;;;;6.40;4.40;;;;;;;15.47;80.36;101436.66;5049307;28;20511;-82
2022/08/10 03:04:59;;;;;;;5.60;4.70;;;;;;;15.39;80.59;101441.91;5064550;28;20449;-82
2022/08/10 03:07:30;;;;;;;6.33;4.20;;;;;;;15.37;80.92;101442.06;5060486;28;20507;-82
2022/08/10 03:09:57;;;;;;;7.40;4.73;;;;;;;15.32;81.17;101441.63;5063990;28;20507;-82
2022/08/10 03:12:24;;;;;;;4.90;4.40;;;;;;;15.28;81.07;101448.31;5055193;28;20500;-82
2022/08/10 03:14:51;;;;;;;4.90;4.40;;;;;;;15.27;80.99;101441.19;5050488;28;20446;-81
2022/08/10 03:17:19;;;;;;;5.50;4.80;;;;;;;15.33;81.34;101432.56;5044680;28;20504;-81
2022/08/10 03:19:46;;;;;;;6.50;4.57;;;;;;;15.32;80.79;101438.09;5061284;28;20487;-81
2022/08/10 03:22:13;;;;;;;7.00;4.73;;;;;;;15.27;81.07;101438.50;5049901;28;20481;-81
2022/08/10 03:24:41;;;;;;;5.17;4.67;;;;;;;15.27;81.11;101448.44;5053586;28;20442;-81
2022/08/10 03:27:08;;;;;;;6.17;4.30;;;;;;;15.24;81.03;101447.75;5043811;28;20504;-81
2022/08/10 03:29:35;;;;;;;5.60;4.70;;;;;;;15.19;81.27;101447.31;5055344;28;20598;-81
2022/08/10 03:32:02;;;;;;;4.70;4.27;;;;;;;15.18;81.54;101437.50;5062571;28;20512;-81
2022/08/10 03:34:29;;;;;;;6.10;4.70;;;;;;;15.21;81.13;101439.94;5061526;28;20539;-81
2022/08/10 03:36:55;;;;;;;4.80;4.13;;;;;;;15.17;81.48;101440.34;5058449;28;20514;-82
2022/08/10 03:39:22;;;;;;;7.43;4.10;;;;;;;15.16;81.37;101450.28;5053821;28;20866;-82
2022/08/10 03:41:54;;;;;;;7.60;5.03;;;;;;;15.19;81.57;101438.34;5064082;28;20480;-82
2022/08/10 03:44:23;;;;;;;5.00;4.50;;;;;;;15.16;81.40;101438.66;5064583;28;20469;-82
2022/08/10 03:46:50;;;;;;;6.27;4.73;;;;;;;15.11;81.81;101457.94;5062664;28;20516;-82
2022/08/10 03:49:18;;;;;;;5.30;4.80;;;;;;;15.08;81.75;101444.75;5063443;28;20584;-82
2022/08/10 03:51:47;;;;;;;5.87;4.80;;;;;;;15.09;81.83;101446.44;5062643;28;20469;-82
2022/08/10 03:54:15;;;;;;;5.13;4.10;;;;;;;15.08;81.75;101442.03;5045077;28;20454;-81
2022/08/10 03:56:41;;;;;;;6.23;4.97;;;;;;;15.02;81.78;101434.53;5052144;28;20921;-82
2022/08/10 03:59:11;;;;;;;5.80;4.23;;;;;;;15.01;82.45;101433.66;5054747;28;20473;-81
2022/08/10 04:01:38;;;;;;;8.00;4.93;;;;;;;15.04;81.98;101430.69;5056617;28;20500;-81
2022/08/10 04:04:05;;;;;;;6.50;4.50;;;;;;;15.14;82.32;101440.66;5062298;28;20453;-82
2022/08/10 04:06:32;;;;;;;10.30;4.70;;;;;;;15.21;81.90;101439.09;5060088;28;20508;-82
2022/08/10 04:08:59;;;;;;;6.00;4.67;;;;;;;15.28;81.04;101440.22;5059090;28;20533;-81
2022/08/10 04:11:25;;;;;;;5.33;4.83;;;;;;;15.47;80.54;101443.88;5053671;28;20477;-82
2022/08/10 04:13:52;;;;;;;5.57;4.97;;;;;;;16.06;79.68;101440.09;5045312;28;20438;-82
2022/08/10 04:16:20;;;;;;;11.23;4.60;;;;;;;16.90;75.21;101447.22;5052239;28;20491;-78
2022/08/10 04:18:47;;;;;;;8.77;5.20;;;;;;;17.37;71.73;101448.00;5062344;28;20475;-79
2022/08/10 04:21:16;;;;;;;5.07;4.13;;;;;;;17.91;70.19;101440.66;5062122;28;20473;-79
2022/08/10 04:23:44;;;;;;;5.63;3.60;;;;;;;18.34;67.90;101436.16;5063449;28;20432;-79
2022/08/10 04:26:12;;;;;;;3.33;2.93;;;;;;;18.51;66.35;101433.53;5056446;28;20660;-77
2022/08/10 04:28:39;;;;;;;3.67;3.37;;;;;;;18.30;65.82;101436.63;5061371;28;20500;-77
2022/08/10 04:31:07;;;;;;;4.27;3.33;;;;;;;18.35;65.64;101431.56;5057903;28;20473;-79
2022/08/10 04:33:37;;;;;;;5.70;3.13;;;;;;;18.61;64.19;101426.97;5061932;28;20464;-75
2022/08/10 04:36:05;;;;;;;4.23;3.40;;;;;;;18.73;63.21;101438.34;5060201;28;20480;-76
2022/08/10 04:38:32;;;;;;;4.80;3.17;;;;;;;18.89;62.76;101445.69;5057870;28;20766;-76
2022/08/10 04:40:59;;;;;;;4.00;3.60;;;;;;;19.12;61.94;101439.63;5051778;28;20501;-76
2022/08/10 04:43:26;;;;;;;6.43;3.23;;;;;;;19.28;61.26;101447.75;5055154;28;20833;-73
2022/08/10 04:45:52;;;;;;;5.03;3.67;;;;;;;18.81;61.62;101442.91;5052243;28;20499;-72
2022/08/10 04:48:21;;;;;;;6.07;3.17;;;;;;;18.28;63.86;101441.38;5043285;28;20454;-72
2022/08/10 04:50:49;;;;;;;4.33;3.47;;;;;;;17.62;66.64;101443.63;5042570;28;21014;-72
2022/08/10 04:53:16;;;;;;;7.50;3.53;;;;;;;16.99;68.96;101444.63;5062701;28;20434;-72
2022/08/10 04:55:43;;;;;;;8.77;4.50;;;;;;;16.63;70.58;101442.69;5059117;28;20464;-72
2022/08/10 04:58:09;;;;;;;5.53;3.80;;;;;;;16.38;71.84;101436.97;5062022;28;20559;-71
2022/08/10 05:00:36;;;;;;;9.80;5.07;;;;;;;16.35;72.41;101439.13;5061964;28;20473;-71
2022/08/10 05:03:03;;;;;;;9.10;5.47;;;;;;;16.64;71.64;101443.53;5061251;28;20448;-72
2022/08/10 05:05:29;;;;;;;8.73;4.60;;;;;;;17.01;70.66;101446.19;5059333;28;20842;-72
2022/08/10 05:07:57;;;;;;;4.77;4.20;;;;;;;16.94;70.91;101453.16;5061969;28;20859;-72
2022/08/10 05:10:24;;;;;;;6.30;4.30;;;;;;;17.35;69.93;101450.88;5060629;28;20477;-72
2022/08/10 05:12:51;;;;;;;5.27;4.10;;;;;;;18.73;65.84;101451.88;5062206;28;20441;-73
2022/08/10 05:15:18;;;;;;;10.80;3.63;;;;;;;20.04;60.99;101458.44;5053893;28;20456;-72
2022/08/10 05:17:45;;;;;;;7.63;4.20;;;;;;;20.87;57.71;101459.81;5052173;28;20466;-72
2022/08/10 05:20:12;;;;;;;8.00;3.60;;;;;;;21.66;54.21;101462.31;5042889;28;20469;-72
2022/08/10 05:22:40;;;;;;;6.20;3.97;;;;;;;22.35;52.60;101459.38;5042279;28;20426;-72
2022/08/10 05:25:10;;;;;;;4.53;3.07;;;;;;;23.33;50.11;101458.22;5057735;28;20533;-73
2022/08/10 05:27:37;;;;;;;4.23;3.30;;;;;;;24.11;47.72;101452.78;5058940;28;20448;-74
2022/08/10 05:30:06;;;;;;;7.10;3.07;;;;;;;24.59;46.35;101450.94;5059856;28;20496;-72
2022/08/10 05:32:34;;;;;;;4.17;3.20;;;;;;;24.60;46.41;101465.47;5056054;28;20495;-73
2022/08/10 05:35:01;;;;;;;5.73;3.77;;;;;;;24.47;46.15;101454.44;5060112;28;20472;-73
2022/08/10 05:37:29;;;;;;;4.23;3.13;;;;;;;25.06;44.77;101459.28;5060850;28;20480;-73
2022/08/10 05:39:56;;;;;;;3.63;2.77;;;;;;;25.40;43.91;101460.22;5061420;28;20887;-72
2022/08/10 05:42:25;;;;;;;3.40;3.10;;;;;;;25.33;43.97;101462.97;5061302;28;21089;-72
2022/08/10 05:44:52;;;;;;;3.43;3.13;;;;;;;24.86;44.58;101458.41;5061168;28;20460;-73
2022/08/10 05:47:19;;;;;;;5.03;3.37;;;;;;;24.11;46.58;101459.06;5060337;28;20489;-73
2022/08/10 05:49:47;;;;;;;3.50;3.20;;;;;;;24.42;46.18;101469.53;5061356;28;20491;-73
2022/08/10 05:52:16;;;;;;;4.50;3.53;;;;;;;24.61;45.70;101465.25;5061451;28;20499;-73
2022/08/10 05:54:43;;;;;;;4.43;3.23;;;;;;;25.18;44.50;101465.84;5060804;28;20429;-73
2022/08/10 05:57:10;;;;;;;6.80;3.70;;;;;;;25.80;42.68;101468.44;5060843;28;20500;-73
2022/08/10 05:59:43;;;;;;;6.53;3.50;;;;;;;26.27;41.33;101465.66;5061815;28;20422;-71
2022/08/10 06:02:11;;;;;;;4.43;2.97;;;;;;;26.27;40.92;101462.91;5060790;28;20556;-71
2022/08/10 06:04:39;;;;;;;3.70;3.33;;;;;;;26.82;39.80;101465.22;5061229;28;20514;-71
2022/08/10 06:07:07;;;;;;;6.47;3.37;;;;;;;26.62;40.02;101471.66;5060738;28;20822;-72
2022/08/10 06:09:35;;;;;;;4.37;3.30;;;;;;;27.18;39.00;101472.81;5061098;28;20531;-73
2022/08/10 06:12:02;;;;;;;2.80;2.50;;;;;;;27.92;37.85;101469.56;5046932;28;20493;-73
2022/08/10 06:17:16;;;;;;;4.23;3.30;;;;;;;27.60;38.11;101475.09;5039216;28;20513;-73
2022/08/10 06:19:43;;;;;;;4.93;3.63;;;;;;;27.16;39.67;101474.13;5041140;28;20905;-74
2022/08/10 06:22:10;;;;;;;3.87;3.13;;;;;;;27.86;37.78;101475.91;5041085;28;20572;-73
2022/08/10 06:24:39;;;;;;;6.90;3.63;;;;;;;27.49;38.04;101479.41;5040888;28;20950;-73
2022/08/10 06:27:06;;;;;;;5.33;3.33;;;;;;;27.53;38.74;101477.91;5040074;28;20536;-73
2022/08/10 06:29:36;;;;;;;4.03;3.60;;;;;;;26.99;40.06;101474.63;5041107;28;20501;-74
2022/08/10 06:32:04;;;;;;;7.53;3.00;;;;;;;27.62;38.57;101475.72;5040459;28;20477;-73
2022/08/10 06:34:34;;;;;;;4.57;3.70;;;;;;;27.61;38.53;101472.13;5041690;28;20437;-73
2022/08/10 06:37:03;;;;;;;3.97;3.10;;;;;;;27.53;37.70;101483.41;5041034;28;20941;-73
2022/08/10 06:39:30;;;;;;;3.60;2.90;;;;;;;28.67;36.32;101485.03;5041302;28;20464;-71
2022/08/10 06:42:03;;;;;;;4.20;3.10;;;;;;;27.92;37.29;101473.16;5041229;28;20466;-71
2022/08/10 06:44:34;;;;;;;8.30;2.97;;;;;;;27.86;37.64;101481.41;5041625;28;20441;-72
2022/08/10 06:47:02;;;;;;;3.23;2.80;;;;;;;27.65;38.32;101477.16;5039986;28;20774;-73
2022/08/10 06:49:31;;;;;;;4.10;3.10;;;;;;;27.47;38.54;101483.44;5041424;28;20507;-74
2022/08/10 06:52:01;;;;;;;3.60;2.90;;;;;;;27.30;38.49;101483.16;5040814;28;20835;-74
2022/08/10 06:54:28;;;;;;;3.93;2.70;;;;;;;28.07;38.10;101492.03;5041081;28;20695;-71
2022/08/10 06:56:55;;;;;;;3.17;2.60;;;;;;;28.42;36.97;101480.44;5041116;28;20798;-71
2022/08/10 06:59:28;;;;;;;2.97;2.50;;;;;;;28.16;37.67;101485.16;5043677;28;20446;-74
2022/08/10 07:01:58;;;;;;;4.60;3.30;;;;;;;29.31;35.56;101484.59;5044432;28;20535;-71
2022/08/10 07:04:28;;;;;;;3.63;2.57;;;;;;;29.01;35.35;101486.28;5043867;28;20461;-71
2022/08/10 07:06:56;;;;;;;4.47;2.83;;;;;;;27.36;37.33;101479.50;5043551;28;20485;-71
2022/08/10 07:09:25;;;;;;;4.47;2.80;;;;;;;26.86;38.23;101475.56;5045465;28;20490;-72
2022/08/10 07:11:52;;;;;;;5.60;2.33;;;;;;;29.86;32.05;101478.84;5044747;28;20482;-72
2022/08/10 07:14:20;;;;;;;3.83;2.50;;;;;;;29.48;32.93;101480.91;5045440;28;20442;-71
2022/08/10 07:16:47;;;;;;;2.80;2.50;;;;;;;29.44;33.53;101478.88;5044536;28;20481;-71
2022/08/10 07:19:15;;;;;;;4.30;2.60;;;;;;;29.75;33.53;101485.13;5045724;28;20431;-72
2022/08/10 07:21:43;;;;;;;5.30;2.30;;;;;;;32.08;29.95;101482.00;5044856;28;20477;-72
2022/08/10 07:24:11;;;;;;;4.70;2.43;;;;;;;32.69;28.65;101472.84;5045149;28;20493;-73
2022/08/10 07:26:45;;;;;;;3.33;2.20;;;;;;;32.78;29.40;101476.84;5044571;28;20560;-72
2022/08/10 07:29:14;;;;;;;3.70;2.43;;;;;;;29.77;33.73;101483.00;5044790;28;20588;-72
2022/08/10 07:31:41;;;;;;;3.80;2.33;;;;;;;32.89;28.84;101477.78;5043958;28;20475;-72
2022/08/10 07:34:08;;;;;;;7.17;3.00;;;;;;;30.33;32.53;101478.78;5044340;28;20502;-72
2022/08/10 07:36:35;;;;;;;5.10;2.83;;;;;;;29.85;33.64;101471.63;5043569;28;20503;-72
2022/08/10 07:39:04;;;;;;;3.60;2.27;;;;;;;29.08;35.54;101470.50;5044553;28;20426;-72
2022/08/10 07:41:31;;;;;;;5.50;3.00;;;;;;;31.40;31.85;101470.13;5043910;28;20505;-72
2022/08/10 07:44:01;;;;;;;6.40;2.70;;;;;;;30.86;33.24;101471.31;5044442;28;20431;-72
2022/08/10 07:46:29;;;;;;;5.70;2.67;;;;;;;29.81;34.85;101473.22;5043117;28;20494;-72
2022/08/10 07:49:00;;;;;;;4.57;2.63;;;;;;;31.27;32.00;101469.34;5044184;28;20503;-72
2022/08/10 07:51:28;;;;;;;2.70;2.20;;;;;;;30.75;31.26;101478.56;5062429;28;20478;-71
2022/08/10 07:53:56;;;;;;;4.13;2.30;;;;;;;31.45;30.99;101471.03;5064041;28;20426;-72
2022/08/10 07:56:25;;;;;;;2.07;1.87;;;;;;;30.28;32.54;101478.69;5063352;28;21006;-72
2022/08/10 07:58:56;;;;;;;4.60;1.93;;;;;;;31.85;30.62;101477.50;5053035;28;20462;-72
2022/08/10 08:01:29;;;;;;;3.37;2.23;;;;;;;31.82;29.85;101473.31;5043940;28;20470;-72
2022/08/10 08:03:59;;;;;;;4.23;1.70;;;;;;;33.05;26.68;101478.78;5044036;28;20436;-72
2022/08/10 08:06:26;;;;;;;3.17;2.10;;;;;;;31.62;28.42;101478.53;5042899;28;20540;-72
2022/08/10 08:08:53;;;;;;;3.17;1.70;;;;;;;32.13;27.96;101472.94;5043978;28;20435;-72
2022/08/10 08:11:20;;;;;;;5.30;1.77;;;;;;;33.75;25.94;101483.34;5042689;28;20507;-72
2022/08/10 08:13:47;;;;;;;3.00;1.97;;;;;;;31.47;28.92;101474.38;5053651;28;20471;-71
2022/08/10 08:16:14;;;;;;;2.33;1.53;;;;;;;33.08;26.86;101472.72;5062989;28;20475;-72
2022/08/10 08:18:43;;;;;;;3.70;1.43;;;;;;;33.50;26.38;101483.09;5063529;28;20463;-72
2022/08/10 08:21:10;;;;;;;3.70;1.77;;;;;;;33.29;26.69;101476.56;5062667;28;20477;-72
2022/08/10 08:23:38;;;;;;;4.70;2.30;;;;;;;33.17;25.68;101477.53;5063318;28;20522;-72
2022/08/10 08:26:05;;;;;;;3.53;1.97;;;;;;;33.93;24.65;101475.69;5062848;28;20482;-73
2022/08/10 08:28:34;;;;;;;9.00;2.27;;;;;;;33.55;25.41;101469.28;5063062;28;20532;-74
2022/08/10 08:31:01;;;;;;;4.50;2.50;;;;;;;33.75;25.26;101477.78;5062849;28;20586;-73
2022/08/10 08:33:28;;;;;;;4.17;1.80;;;;;;;34.01;25.41;101466.88;5063512;28;20453;-74
2022/08/10 08:35:57;;;;;;;4.00;2.17;;;;;;;34.21;25.08;101476.44;5062692;28;20504;-73
2022/08/10 08:38:24;;;;;;;6.30;2.43;;;;;;;34.03;24.65;101463.81;5063349;28;20477;-74
2022/08/10 08:40:57;;;;;;;8.33;2.13;;;;;;;34.00;24.31;101464.34;5062930;28;20471;-74
2022/08/10 08:43:38;;;;;;;2.83;1.93;;;;;;;32.49;26.42;101467.88;5063254;28;20435;-73
2022/08/10 08:46:30;;;;;;;3.33;2.00;;;;;;;32.39;26.78;101457.53;5062485;28;20475;-73
2022/08/10 08:49:19;;;;;;;2.90;2.20;;;;;;;32.77;27.60;101455.78;5063351;28;20429;-73
2022/08/10 08:51:54;;;;;;;3.57;1.93;;;;;;;34.18;24.61;101454.72;5062550;28;20472;-73
2022/08/10 08:54:33;;;;;;;3.13;2.10;;;;;;;33.28;25.29;101448.00;5063208;28;20494;-73
2022/08/10 08:57:04;;;;;;;4.33;2.30;;;;;;;33.72;25.36;101461.69;5061717;28;20479;-73
2022/08/10 08:59:42;;;;;;;2.07;1.90;;;;;;;35.14;23.61;101456.19;5063161;28;20511;-74
2022/08/10 09:02:18;;;;;;;2.73;2.03;;;;;;;34.39;24.97;101455.69;5062338;28;20483;-74
2022/08/10 09:04:57;;;;;;;4.70;2.07;;;;;;;33.59;26.22;101443.53;5062443;28;20483;-73
2022/08/10 09:07:50;;;;;;;4.50;1.90;;;;;;;33.75;25.94;101447.28;5062123;28;20479;-73
2022/08/10 09:10:24;;;;;;;3.83;2.07;;;;;;;34.60;24.25;101442.69;5061883;28;20467;-74
2022/08/10 09:12:57;;;;;;;2.70;1.90;;;;;;;33.33;25.49;101439.75;5042883;28;20509;-73
2022/08/10 09:15:29;;;;;;;4.43;2.13;;;;;;;32.76;26.42;101441.09;5041824;28;20459;-74
2022/08/10 09:18:07;;;;;;;5.30;1.70;;;;;;;34.86;23.29;101438.91;5042653;28;20546;-73
2022/08/10 09:20:37;;;;;;;1.73;1.63;;;;;;;33.83;23.99;101432.06;5041877;28;20534;-73
2022/08/10 09:23:11;;;;;;;4.80;2.03;;;;;;;35.27;22.24;101427.00;5042392;28;20447;-73
2022/08/10 09:25:44;;;;;;;3.90;2.00;;;;;;;36.37;21.64;101433.75;5041813;28;20471;-73
2022/08/10 09:28:14;;;;;;;4.43;1.90;;;;;;;34.47;22.88;101432.94;5041798;28;20471;-73
2022/08/10 09:30:44;;;;;;;2.93;1.90;;;;;;;35.17;22.80;101429.75;5041925;28;20487;-73
2022/08/10 09:33:14;;;;;;;2.43;1.70;;;;;;;31.94;27.31;101426.19;5042509;28;20469;-73
2022/08/10 09:35:51;;;;;;;1.93;1.47;;;;;;;34.09;24.02;101435.81;5041292;28;20471;-73
2022/08/10 09:38:27;;;;;;;5.27;2.10;;;;;;;34.58;22.20;101431.84;5041894;28;20973;-73
2022/08/10 09:40:58;;;;;;;3.10;1.70;;;;;;;35.06;21.74;101429.75;5042255;28;20562;-73
2022/08/10 09:43:35;;;;;;;7.30;2.20;;;;;;;35.59;21.43;101425.84;5042495;28;20431;-72
2022/08/10 09:46:07;;;;;;;2.50;1.90;;;;;;;34.66;22.62;101420.22;5041445;28;20506;-73
2022/08/10 09:48:39;;;;;;;4.03;1.80;;;;;;;35.41;20.89;101416.16;5041917;28;20516;-73
2022/08/10 09:51:10;;;;;;;3.83;1.77;;;;;;;33.94;23.97;101413.56;5041267;28;20481;-72
2022/08/10 09:53:50;;;;;;;3.07;1.67;;;;;;;34.35;23.54;101415.69;5042202;28;20435;-73
2022/08/10 09:56:25;;;;;;;3.30;1.53;;;;;;;34.47;22.47;101403.22;5041413;28;20976;-72
2022/08/10 09:59:01;;;;;;;2.60;1.83;;;;;;;34.15;22.71;101406.97;5041659;28;20452;-72
2022/08/10 10:01:32;;;;;;;2.07;1.80;;;;;;;34.67;22.04;101404.41;5041631;28;20479;-72
2022/08/10 10:04:05;;;;;;;4.30;1.60;;;;;;;35.19;21.46;101397.81;5044065;28;20546;-73
2022/08/10 10:06:38;;;;;;;2.43;1.73;;;;;;;35.08;22.05;101393.34;5041295;28;20483;-73
2022/08/10 10:09:10;;;;;;;2.70;1.60;;;;;;;35.53;21.58;101388.88;5042195;28;20482;-72
2022/08/10 10:11:46;;;;;;;2.83;1.70;;;;;;;33.91;23.14;101391.91;5050580;28;20741;-73
2022/08/10 10:14:24;;;;;;;3.13;2.30;;;;;;;33.81;23.17;101383.50;5061990;28;20443;-73
2022/08/10 10:17:01;;;;;;;2.97;1.80;;;;;;;34.71;22.64;101380.53;5061257;28;20477;-72
2022/08/10 10:19:52;;;;;;;2.20;1.73;;;;;;;34.41;22.60;101387.69;5041072;28;20432;-73
2022/08/10 10:22:31;;;;;;;2.63;1.57;;;;;;;33.09;24.16;101383.81;5041635;28;20464;-73
2022/08/10 10:25:04;;;;;;;2.70;1.90;;;;;;;32.31;23.97;101377.72;5042624;28;20432;-72
2022/08/10 10:27:37;;;;;;;2.07;1.70;;;;;;;33.46;23.63;101382.16;5040870;28;20510;-72
2022/08/10 10:30:06;;;;;;;2.20;1.60;;;;;;;31.70;25.71;101370.25;5041694;28;20551;-72
2022/08/10 10:32:57;;;;;;;4.40;2.03;;;;;;;33.45;22.83;101373.00;5041618;28;20471;-72
2022/08/10 10:35:28;;;;;;;3.77;1.70;;;;;;;33.81;22.69;101370.47;5045354;28;20515;-73
2022/08/10 10:37:56;;;;;;;4.70;2.17;;;;;;;34.03;22.58;101369.47;5063343;28;20450;-73
2022/08/10 10:40:27;;;;;;;6.40;1.90;;;;;;;33.02;24.01;101359.09;5057166;28;20450;-73
2022/08/10 10:43:04;;;;;;;2.30;1.50;;;;;;;32.83;24.50;101369.72;5057055;28;20438;-73
2022/08/10 10:45:36;;;;;;;4.03;1.67;;;;;;;34.51;21.25;101373.81;5052514;28;20525;-72
2022/08/10 10:48:13;;;;;;;1.77;1.47;;;;;;;34.08;21.58;101359.22;5045342;28;20505;-73
2022/08/10 10:50:49;;;;;;;3.03;1.87;;;;;;;34.35;21.80;101349.88;5046939;28;20476;-74
2022/08/10 10:53:21;;;;;;;1.97;1.33;;;;;;;34.86;21.38;101350.00;5057259;28;20442;-73
2022/08/10 10:55:53;;;;;;;3.57;1.60;;;;;;;34.07;21.86;101359.50;5049090;28;20476;-73
2022/08/10 10:58:23;;;;;;;3.13;1.80;;;;;;;33.83;23.10;101359.09;5065791;28;20465;-73
2022/08/10 11:00:57;;;;;;;2.73;2.00;;;;;;;33.90;22.87;101356.91;5060340;28;20517;-73
2022/08/10 11:03:48;;;;;;;2.40;1.80;;;;;;;33.61;23.75;101353.69;5045432;28;20443;-73
2022/08/10 11:06:22;;;;;;;4.97;2.17;;;;;;;32.49;24.39;101344.16;5044334;28;20537;-73
2022/08/10 11:08:53;;;;;;;2.40;1.63;;;;;;;30.95;26.69;101345.63;5044740;28;20519;-73
2022/08/10 11:11:25;;;;;;;2.67;1.77;;;;;;;32.07;25.55;101350.31;5044303;28;20482;-73
2022/08/10 11:14:12;;;;;;;5.37;1.73;;;;;;;32.99;24.12;101351.28;5045319;28;20435;-73
2022/08/10 11:16:43;;;;;;;2.77;1.90;;;;;;;33.65;22.89;101346.50;5064797;28;20465;-73
2022/08/10 11:19:17;;;;;;;3.93;2.20;;;;;;;32.93;23.55;101343.19;5048795;28;20498;-73
2022/08/10 11:21:52;;;;;;;6.00;1.90;;;;;;;32.92;23.96;101345.16;5043973;28;20475;-73
2022/08/10 11:24:24;;;;;;;2.60;1.77;;;;;;;33.96;22.09;101350.31;5045486;28;20420;-73
2022/08/10 11:26:55;;;;;;;4.87;2.00;;;;;;;33.43;23.66;101352.19;5044499;28;20479;-73
2022/08/10 11:29:25;;;;;;;2.83;1.40;;;;;;;33.60;23.11;101350.09;5051146;28;20478;-73
2022/08/10 11:31:58;;;;;;;2.03;1.53;;;;;;;33.75;23.04;101343.81;5044399;28;20497;-73
2022/08/10 11:34:33;;;;;;;3.40;1.90;;;;;;;33.83;21.64;101342.47;5044448;28;20509;-73
2022/08/10 11:37:05;;;;;;;2.80;1.50;;;;;;;32.96;22.49;101335.19;5044325;28;20495;-72
2022/08/10 11:39:37;;;;;;;5.00;1.60;;;;;;;33.36;22.10;101327.47;5044940;28;20434;-72
2022/08/10 11:42:09;;;;;;;3.80;2.20;;;;;;;33.59;22.62;101331.75;5044049;28;20532;-74
2022/08/10 11:44:41;;;;;;;3.83;1.87;;;;;;;33.69;22.60;101325.47;5044234;28;20456;-73